sensor_id;sensor_type;location;lat;lon;timestamp;temperature;humidity
5118;DHT22;2578;51.622;7.046;2023-04-24T00:00:08;10.90;74.20
5118;DHT22;2578;51.622;7.046;2023-04-24T00:02:44;10.90;1.00
5118;DHT22;2578;51.622;7.046;2023-04-24T00:05:16;10.90;99.90
5118;DHT22;2578;51.622;7.046;2023-04-24T00:07:43;10.90;1.00
5118;DHT22;2578;51.622;7.046;2023-04-24T00:10:09;10.90;99.90
5118;DHT22;2578;51.622;7.046;2023-04-24T00:12:35;10.80;99.90
5118;DHT22;2578;51.622;7.046;2023-04-24T00:15:01;10.90;99.90
5118;DHT22;2578;51.622;7.046;2023-04-24T00:17:27;10.90;1.00
5118;DHT22;2578;51.622;7.046;2023-04-24T00:19:52;10.90;99.90
5118;DHT22;2578;51.622;7.046;2023-04-24T00:22:25;10.90;99.90
5118;DHT22;2578;51.622;7.046;2023-04-24T00:24:51;11.20;99.90
5118;DHT22;2578;51.622;7.046;2023-04-24T00:27:16;11.00;99.90
5118;DHT22;2578;51.622;7.046;2023-04-24T00:29:42;11.00;99.90
5118;DHT22;2578;51.622;7.046;2023-04-24T00:32:08;10.90;99.90
5118;DHT22;2578;51.622;7.046;2023-04-24T00:34:33;11.40;99.90
5118;DHT22;2578;51.622;7.046;2023-04-24T00:36:59;11.00;99.90
5118;DHT22;2578;51.622;7.046;2023-04-24T00:39:24;10.90;99.90
5118;DHT22;2578;51.622;7.046;2023-04-24T00:41:51;11.00;99.90
5118;DHT22;2578;51.622;7.046;2023-04-24T00:44:16;10.90;99.90
5118;DHT22;2578;51.622;7.046;2023-04-24T00:46:42;10.90;99.90
5118;DHT22;2578;51.622;7.046;2023-04-24T00:49:08;10.90;99.90
5118;DHT22;2578;51.622;7.046;2023-04-24T00:51:34;10.90;99.90
5118;DHT22;2578;51.622;7.046;2023-04-24T00:54:00;10.80;99.90
5118;DHT22;2578;51.622;7.046;2023-04-24T00:56:26;10.90;1.00
5118;DHT22;2578;51.622;7.046;2023-04-24T00:58:52;10.80;99.90
5118;DHT22;2578;51.622;7.046;2023-04-24T01:01:22;10.80;99.90
5118;DHT22;2578;51.622;7.046;2023-04-24T01:03:49;11.90;50.20
5118;DHT22;2578;51.622;7.046;2023-04-24T01:06:16;10.70;99.90
5118;DHT22;2578;51.622;7.046;2023-04-24T01:08:42;10.70;1.00
5118;DHT22;2578;51.622;7.046;2023-04-24T01:11:08;10.60;99.90
5118;DHT22;2578;51.622;7.046;2023-04-24T01:13:34;10.60;1.00
5118;DHT22;2578;51.622;7.046;2023-04-24T01:16:00;10.70;1.00
5118;DHT22;2578;51.622;7.046;2023-04-24T01:18:26;10.60;99.90
5118;DHT22;2578;51.622;7.046;2023-04-24T01:20:54;10.50;99.90
5118;DHT22;2578;51.622;7.046;2023-04-24T01:23:22;10.90;99.90
5118;DHT22;2578;51.622;7.046;2023-04-24T01:25:49;11.30;1.00
5118;DHT22;2578;51.622;7.046;2023-04-24T01:28:16;10.40;1.00
5118;DHT22;2578;51.622;7.046;2023-04-24T01:30:42;10.40;1.00
5118;DHT22;2578;51.622;7.046;2023-04-24T01:33:12;10.40;99.90
5118;DHT22;2578;51.622;7.046;2023-04-24T01:35:38;10.30;1.00
5118;DHT22;2578;51.622;7.046;2023-04-24T01:38:04;10.10;50.80
5118;DHT22;2578;51.622;7.046;2023-04-24T01:40:32;10.10;47.90
5118;DHT22;2578;51.622;7.046;2023-04-24T01:42:58;10.00;1.00
5118;DHT22;2578;51.622;7.046;2023-04-24T01:45:24;10.10;99.90
5118;DHT22;2578;51.622;7.046;2023-04-24T01:47:50;9.70;99.90
5118;DHT22;2578;51.622;7.046;2023-04-24T01:50:16;9.90;1.00
5118;DHT22;2578;51.622;7.046;2023-04-24T01:52:42;9.70;99.90
5118;DHT22;2578;51.622;7.046;2023-04-24T01:55:08;9.70;42.70
5118;DHT22;2578;51.622;7.046;2023-04-24T01:57:34;9.80;99.90
5118;DHT22;2578;51.622;7.046;2023-04-24T02:00:00;9.70;99.90
5118;DHT22;2578;51.622;7.046;2023-04-24T02:02:26;9.70;99.90
5118;DHT22;2578;51.622;7.046;2023-04-24T02:04:54;9.80;1.00
5118;DHT22;2578;51.622;7.046;2023-04-24T02:07:20;9.70;1.00
5118;DHT22;2578;51.622;7.046;2023-04-24T02:09:45;9.70;1.00
5118;DHT22;2578;51.622;7.046;2023-04-24T02:12:11;9.70;99.90
5118;DHT22;2578;51.622;7.046;2023-04-24T02:14:37;9.70;99.90
5118;DHT22;2578;51.622;7.046;2023-04-24T02:17:03;9.80;99.90
5118;DHT22;2578;51.622;7.046;2023-04-24T02:19:28;9.70;1.00
5118;DHT22;2578;51.622;7.046;2023-04-24T02:21:54;9.70;1.00
5118;DHT22;2578;51.622;7.046;2023-04-24T02:24:20;9.90;99.90
5118;DHT22;2578;51.622;7.046;2023-04-24T02:26:45;9.70;1.00
5118;DHT22;2578;51.622;7.046;2023-04-24T02:29:11;9.60;99.90
5118;DHT22;2578;51.622;7.046;2023-04-24T02:31:36;9.70;1.00
5118;DHT22;2578;51.622;7.046;2023-04-24T02:34:02;9.70;1.00
5118;DHT22;2578;51.622;7.046;2023-04-24T02:36:28;9.70;1.00
5118;DHT22;2578;51.622;7.046;2023-04-24T02:38:54;9.60;99.90
5118;DHT22;2578;51.622;7.046;2023-04-24T02:41:19;9.60;1.00
5118;DHT22;2578;51.622;7.046;2023-04-24T02:43:45;9.60;99.90
5118;DHT22;2578;51.622;7.046;2023-04-24T02:46:11;9.60;99.90
5118;DHT22;2578;51.622;7.046;2023-04-24T02:48:36;9.60;1.00
5118;DHT22;2578;51.622;7.046;2023-04-24T02:51:03;9.70;1.00
5118;DHT22;2578;51.622;7.046;2023-04-24T02:53:29;9.70;1.00
5118;DHT22;2578;51.622;7.046;2023-04-24T02:55:56;9.60;99.90
5118;DHT22;2578;51.622;7.046;2023-04-24T02:58:22;9.60;1.00
5118;DHT22;2578;51.622;7.046;2023-04-24T03:00:47;9.50;31.80
5118;DHT22;2578;51.622;7.046;2023-04-24T03:03:13;9.70;89.50
5118;DHT22;2578;51.622;7.046;2023-04-24T03:05:40;9.50;26.80
5118;DHT22;2578;51.622;7.046;2023-04-24T03:08:06;9.60;92.10
5118;DHT22;2578;51.622;7.046;2023-04-24T03:10:31;9.60;17.70
5118;DHT22;2578;51.622;7.046;2023-04-24T03:12:59;9.60;99.90
5118;DHT22;2578;51.622;7.046;2023-04-24T03:15:26;9.60;54.60
5118;DHT22;2578;51.622;7.046;2023-04-24T03:17:54;9.60;99.90
5118;DHT22;2578;51.622;7.046;2023-04-24T03:20:20;10.30;1.00
5118;DHT22;2578;51.622;7.046;2023-04-24T03:22:46;9.60;99.90
5118;DHT22;2578;51.622;7.046;2023-04-24T03:25:12;9.60;1.00
5118;DHT22;2578;51.622;7.046;2023-04-24T03:27:38;9.60;99.90
5118;DHT22;2578;51.622;7.046;2023-04-24T03:30:06;9.60;99.90
5118;DHT22;2578;51.622;7.046;2023-04-24T03:32:31;9.60;99.90
5118;DHT22;2578;51.622;7.046;2023-04-24T03:34:57;9.80;99.90
5118;DHT22;2578;51.622;7.046;2023-04-24T03:37:23;9.70;99.90
5118;DHT22;2578;51.622;7.046;2023-04-24T03:39:49;9.60;99.90
5118;DHT22;2578;51.622;7.046;2023-04-24T03:42:46;9.80;1.00
5118;DHT22;2578;51.622;7.046;2023-04-24T03:45:12;9.60;1.00
5118;DHT22;2578;51.622;7.046;2023-04-24T03:47:37;9.60;99.90
5118;DHT22;2578;51.622;7.046;2023-04-24T03:50:04;9.60;99.90
5118;DHT22;2578;51.622;7.046;2023-04-24T03:52:30;9.60;99.90
5118;DHT22;2578;51.622;7.046;2023-04-24T03:54:56;10.00;1.00
5118;DHT22;2578;51.622;7.046;2023-04-24T03:57:25;9.70;99.90
5118;DHT22;2578;51.622;7.046;2023-04-24T03:59:53;9.50;99.90
5118;DHT22;2578;51.622;7.046;2023-04-24T04:02:19;9.50;99.90
5118;DHT22;2578;51.622;7.046;2023-04-24T04:04:45;9.50;1.00
5118;DHT22;2578;51.622;7.046;2023-04-24T04:07:10;9.60;1.00
5118;DHT22;2578;51.622;7.046;2023-04-24T04:09:36;9.50;99.90
5118;DHT22;2578;51.622;7.046;2023-04-24T04:12:02;9.90;1.00
5118;DHT22;2578;51.622;7.046;2023-04-24T04:14:28;9.50;56.80
5118;DHT22;2578;51.622;7.046;2023-04-24T04:16:54;9.50;99.90
5118;DHT22;2578;51.622;7.046;2023-04-24T04:19:19;9.50;1.00
5118;DHT22;2578;51.622;7.046;2023-04-24T04:21:45;9.50;99.90
5118;DHT22;2578;51.622;7.046;2023-04-24T04:24:11;10.70;32.80
5118;DHT22;2578;51.622;7.046;2023-04-24T04:26:37;9.60;68.70
5118;DHT22;2578;51.622;7.046;2023-04-24T04:29:06;9.60;1.00
5118;DHT22;2578;51.622;7.046;2023-04-24T04:31:35;9.60;99.90
5118;DHT22;2578;51.622;7.046;2023-04-24T04:34:02;9.50;99.90
5118;DHT22;2578;51.622;7.046;2023-04-24T04:36:30;9.60;99.90
5118;DHT22;2578;51.622;7.046;2023-04-24T04:38:56;9.60;74.60
5118;DHT22;2578;51.622;7.046;2023-04-24T04:41:22;10.00;1.00
5118;DHT22;2578;51.622;7.046;2023-04-24T04:43:48;9.60;99.90
5118;DHT22;2578;51.622;7.046;2023-04-24T04:46:13;9.70;99.90
5118;DHT22;2578;51.622;7.046;2023-04-24T04:48:39;9.70;99.90
5118;DHT22;2578;51.622;7.046;2023-04-24T04:51:05;9.80;99.90
5118;DHT22;2578;51.622;7.046;2023-04-24T04:53:31;9.70;1.00
5118;DHT22;2578;51.622;7.046;2023-04-24T04:55:57;9.60;99.90
5118;DHT22;2578;51.622;7.046;2023-04-24T04:58:23;9.70;1.00
5118;DHT22;2578;51.622;7.046;2023-04-24T05:00:48;9.70;99.90
5118;DHT22;2578;51.622;7.046;2023-04-24T05:03:14;9.90;75.60
5118;DHT22;2578;51.622;7.046;2023-04-24T05:05:40;9.60;99.90
5118;DHT22;2578;51.622;7.046;2023-04-24T05:08:07;9.70;99.90
5118;DHT22;2578;51.622;7.046;2023-04-24T05:10:33;9.70;1.00
5118;DHT22;2578;51.622;7.046;2023-04-24T05:12:58;9.00;99.90
5118;DHT22;2578;51.622;7.046;2023-04-24T05:15:24;9.80;1.00
5118;DHT22;2578;51.622;7.046;2023-04-24T05:17:50;9.60;90.30
5118;DHT22;2578;51.622;7.046;2023-04-24T05:20:15;10.00;99.90
5118;DHT22;2578;51.622;7.046;2023-04-24T05:25:08;9.70;1.00
5118;DHT22;2578;51.622;7.046;2023-04-24T05:27:34;9.70;1.00
5118;DHT22;2578;51.622;7.046;2023-04-24T05:32:26;9.70;1.00
5118;DHT22;2578;51.622;7.046;2023-04-24T05:34:52;9.70;51.70
5118;DHT22;2578;51.622;7.046;2023-04-24T05:37:18;9.70;99.90
5118;DHT22;2578;51.622;7.046;2023-04-24T05:39:43;9.70;99.90
5118;DHT22;2578;51.622;7.046;2023-04-24T05:44:37;9.70;99.90
5118;DHT22;2578;51.622;7.046;2023-04-24T05:47:03;9.60;99.90
5118;DHT22;2578;51.622;7.046;2023-04-24T05:49:29;9.30;6.90
5118;DHT22;2578;51.622;7.046;2023-04-24T05:51:55;9.40;99.90
5118;DHT22;2578;51.622;7.046;2023-04-24T05:54:21;9.30;99.90
5118;DHT22;2578;51.622;7.046;2023-04-24T05:56:48;9.20;99.90
5118;DHT22;2578;51.622;7.046;2023-04-24T05:59:14;9.00;55.30
5118;DHT22;2578;51.622;7.046;2023-04-24T06:01:40;8.90;1.00
5118;DHT22;2578;51.622;7.046;2023-04-24T06:04:06;8.90;1.00
5118;DHT22;2578;51.622;7.046;2023-04-24T06:06:32;8.90;1.00
5118;DHT22;2578;51.622;7.046;2023-04-24T06:08:58;8.90;99.90
5118;DHT22;2578;51.622;7.046;2023-04-24T06:11:24;8.90;1.00
5118;DHT22;2578;51.622;7.046;2023-04-24T06:13:50;9.00;1.00
5118;DHT22;2578;51.622;7.046;2023-04-24T06:16:16;9.00;99.90
5118;DHT22;2578;51.622;7.046;2023-04-24T06:21:07;9.00;99.90
5118;DHT22;2578;51.622;7.046;2023-04-24T06:23:33;9.10;1.00
5118;DHT22;2578;51.622;7.046;2023-04-24T06:25:59;9.20;99.90
5118;DHT22;2578;51.622;7.046;2023-04-24T06:28:25;9.40;1.00
5118;DHT22;2578;51.622;7.046;2023-04-24T06:30:51;9.40;65.20
5118;DHT22;2578;51.622;7.046;2023-04-24T06:33:16;9.50;1.00
5118;DHT22;2578;51.622;7.046;2023-04-24T06:35:42;9.60;99.90
5118;DHT22;2578;51.622;7.046;2023-04-24T06:38:08;9.50;99.90
5118;DHT22;2578;51.622;7.046;2023-04-24T06:40:34;9.50;99.90
5118;DHT22;2578;51.622;7.046;2023-04-24T06:42:59;9.50;1.00
5118;DHT22;2578;51.622;7.046;2023-04-24T06:45:28;9.30;99.90
5118;DHT22;2578;51.622;7.046;2023-04-24T06:47:55;8.90;1.00
5118;DHT22;2578;51.622;7.046;2023-04-24T06:50:21;9.10;1.00
5118;DHT22;2578;51.622;7.046;2023-04-24T06:52:46;9.20;1.00
5118;DHT22;2578;51.622;7.046;2023-04-24T06:55:12;9.10;1.00
5118;DHT22;2578;51.622;7.046;2023-04-24T06:57:38;9.10;1.00
5118;DHT22;2578;51.622;7.046;2023-04-24T07:00:05;9.10;99.90
5118;DHT22;2578;51.622;7.046;2023-04-24T07:02:32;9.20;99.90
5118;DHT22;2578;51.622;7.046;2023-04-24T07:04:58;9.50;7.30
5118;DHT22;2578;51.622;7.046;2023-04-24T07:07:24;9.70;1.00
5118;DHT22;2578;51.622;7.046;2023-04-24T07:09:49;9.70;99.90
5118;DHT22;2578;51.622;7.046;2023-04-24T07:12:16;9.70;1.00
5118;DHT22;2578;51.622;7.046;2023-04-24T07:14:42;9.50;31.90
5118;DHT22;2578;51.622;7.046;2023-04-24T07:17:08;9.50;99.90
5118;DHT22;2578;51.622;7.046;2023-04-24T07:19:34;9.40;99.90
5118;DHT22;2578;51.622;7.046;2023-04-24T07:22:05;9.20;99.90
5118;DHT22;2578;51.622;7.046;2023-04-24T07:24:50;9.30;99.90
5118;DHT22;2578;51.622;7.046;2023-04-24T07:27:18;9.30;99.90
5118;DHT22;2578;51.622;7.046;2023-04-24T07:29:46;9.20;1.00
5118;DHT22;2578;51.622;7.046;2023-04-24T07:32:12;9.20;1.00
5118;DHT22;2578;51.622;7.046;2023-04-24T07:34:38;9.10;1.00
5118;DHT22;2578;51.622;7.046;2023-04-24T07:37:07;9.20;1.00
5118;DHT22;2578;51.622;7.046;2023-04-24T07:39:38;9.20;1.00
5118;DHT22;2578;51.622;7.046;2023-04-24T07:42:05;9.10;1.00
5118;DHT22;2578;51.622;7.046;2023-04-24T07:44:30;9.00;1.00
5118;DHT22;2578;51.622;7.046;2023-04-24T07:47:00;9.00;99.50
5118;DHT22;2578;51.622;7.046;2023-04-24T07:49:26;8.90;99.90
5118;DHT22;2578;51.622;7.046;2023-04-24T07:51:53;8.90;99.90
5118;DHT22;2578;51.622;7.046;2023-04-24T07:54:18;8.90;99.90
5118;DHT22;2578;51.622;7.046;2023-04-24T07:56:44;8.90;99.90
5118;DHT22;2578;51.622;7.046;2023-04-24T07:59:10;8.90;1.00
5118;DHT22;2578;51.622;7.046;2023-04-24T08:01:36;8.90;99.90
5118;DHT22;2578;51.622;7.046;2023-04-24T08:04:02;8.90;1.00
5118;DHT22;2578;51.622;7.046;2023-04-24T08:06:29;8.90;1.00
5118;DHT22;2578;51.622;7.046;2023-04-24T08:08:56;10.90;1.00
5118;DHT22;2578;51.622;7.046;2023-04-24T08:11:22;8.80;99.90
5118;DHT22;2578;51.622;7.046;2023-04-24T08:13:48;8.80;99.90
5118;DHT22;2578;51.622;7.046;2023-04-24T08:16:14;8.60;33.50
5118;DHT22;2578;51.622;7.046;2023-04-24T08:18:40;8.60;99.90
5118;DHT22;2578;51.622;7.046;2023-04-24T08:21:05;8.60;99.90
5118;DHT22;2578;51.622;7.046;2023-04-24T08:23:31;8.70;99.90
5118;DHT22;2578;51.622;7.046;2023-04-24T08:25:57;8.70;99.90
5118;DHT22;2578;51.622;7.046;2023-04-24T08:28:23;8.70;99.90
5118;DHT22;2578;51.622;7.046;2023-04-24T08:30:49;8.60;99.90
5118;DHT22;2578;51.622;7.046;2023-04-24T08:33:21;8.60;1.00
5118;DHT22;2578;51.622;7.046;2023-04-24T08:35:47;8.60;99.90
5118;DHT22;2578;51.622;7.046;2023-04-24T08:38:13;9.30;99.90
5118;DHT22;2578;51.622;7.046;2023-04-24T08:40:39;8.70;99.90
5118;DHT22;2578;51.622;7.046;2023-04-24T08:43:05;8.50;99.90
5118;DHT22;2578;51.622;7.046;2023-04-24T08:45:32;8.40;1.00
5118;DHT22;2578;51.622;7.046;2023-04-24T08:47:58;8.30;1.00
5118;DHT22;2578;51.622;7.046;2023-04-24T08:50:25;8.40;9.80
5118;DHT22;2578;51.622;7.046;2023-04-24T08:52:52;8.50;99.90
5118;DHT22;2578;51.622;7.046;2023-04-24T08:55:24;8.60;99.90
5118;DHT22;2578;51.622;7.046;2023-04-24T08:57:52;8.50;1.00
5118;DHT22;2578;51.622;7.046;2023-04-24T09:00:20;8.50;99.90
5118;DHT22;2578;51.622;7.046;2023-04-24T09:02:47;8.60;99.90
5118;DHT22;2578;51.622;7.046;2023-04-24T09:05:14;8.50;99.90
5118;DHT22;2578;51.622;7.046;2023-04-24T09:07:44;8.50;99.90
5118;DHT22;2578;51.622;7.046;2023-04-24T09:10:12;8.50;99.90
5118;DHT22;2578;51.622;7.046;2023-04-24T09:12:38;8.60;1.00
5118;DHT22;2578;51.622;7.046;2023-04-24T09:15:04;8.80;99.90
5118;DHT22;2578;51.622;7.046;2023-04-24T09:17:33;9.10;99.90
5118;DHT22;2578;51.622;7.046;2023-04-24T09:19:59;9.10;99.90
5118;DHT22;2578;51.622;7.046;2023-04-24T09:22:25;9.00;99.90
5118;DHT22;2578;51.622;7.046;2023-04-24T09:25:07;9.00;14.30
5118;DHT22;2578;51.622;7.046;2023-04-24T09:27:34;6.90;99.90
5118;DHT22;2578;51.622;7.046;2023-04-24T09:30:00;8.80;1.00
5118;DHT22;2578;51.622;7.046;2023-04-24T09:32:26;8.80;99.90
5118;DHT22;2578;51.622;7.046;2023-04-24T09:35:11;8.70;99.90
5118;DHT22;2578;51.622;7.046;2023-04-24T09:37:42;8.70;99.90
5118;DHT22;2578;51.622;7.046;2023-04-24T09:40:10;8.60;99.90
5118;DHT22;2578;51.622;7.046;2023-04-24T09:42:39;8.70;99.90
5118;DHT22;2578;51.622;7.046;2023-04-24T09:45:14;8.70;99.90
5118;DHT22;2578;51.622;7.046;2023-04-24T09:47:40;8.60;99.90
5118;DHT22;2578;51.622;7.046;2023-04-24T09:50:11;8.60;99.90
5118;DHT22;2578;51.622;7.046;2023-04-24T09:52:55;8.50;99.90
5118;DHT22;2578;51.622;7.046;2023-04-24T09:55:21;8.40;99.90
5118;DHT22;2578;51.622;7.046;2023-04-24T09:58:00;8.30;99.90
5118;DHT22;2578;51.622;7.046;2023-04-24T10:00:28;8.30;99.90
5118;DHT22;2578;51.622;7.046;2023-04-24T10:03:04;8.30;99.90
5118;DHT22;2578;51.622;7.046;2023-04-24T10:05:33;8.30;99.90
5118;DHT22;2578;51.622;7.046;2023-04-24T10:08:07;5.90;99.90
5118;DHT22;2578;51.622;7.046;2023-04-24T10:10:34;8.20;99.90
5118;DHT22;2578;51.622;7.046;2023-04-24T10:13:01;8.30;99.90
5118;DHT22;2578;51.622;7.046;2023-04-24T10:15:27;8.10;99.90
5118;DHT22;2578;51.622;7.046;2023-04-24T10:17:53;8.10;99.90
5118;DHT22;2578;51.622;7.046;2023-04-24T10:20:24;8.10;99.90
5118;DHT22;2578;51.622;7.046;2023-04-24T10:22:52;8.10;99.90
5118;DHT22;2578;51.622;7.046;2023-04-24T10:25:22;8.20;99.90
5118;DHT22;2578;51.622;7.046;2023-04-24T10:27:50;8.30;99.90
5118;DHT22;2578;51.622;7.046;2023-04-24T10:30:17;8.30;99.90
5118;DHT22;2578;51.622;7.046;2023-04-24T10:32:43;8.40;99.90
5118;DHT22;2578;51.622;7.046;2023-04-24T10:35:10;8.30;99.90
5118;DHT22;2578;51.622;7.046;2023-04-24T10:38:21;8.40;99.90
5118;DHT22;2578;51.622;7.046;2023-04-24T10:40:34;8.40;99.90
5118;DHT22;2578;51.622;7.046;2023-04-24T10:43:08;8.30;99.90
5118;DHT22;2578;51.622;7.046;2023-04-24T10:45:36;8.30;99.90
5118;DHT22;2578;51.622;7.046;2023-04-24T10:48:04;8.20;99.90
5118;DHT22;2578;51.622;7.046;2023-04-24T10:50:47;8.20;99.90
5118;DHT22;2578;51.622;7.046;2023-04-24T10:53:18;8.20;99.90
5118;DHT22;2578;51.622;7.046;2023-04-24T10:55:49;8.20;99.90
5118;DHT22;2578;51.622;7.046;2023-04-24T10:58:16;8.20;99.90
5118;DHT22;2578;51.622;7.046;2023-04-24T11:00:43;8.20;99.90
5118;DHT22;2578;51.622;7.046;2023-04-24T11:03:29;8.20;99.90
5118;DHT22;2578;51.622;7.046;2023-04-24T11:06:05;8.20;99.90
5118;DHT22;2578;51.622;7.046;2023-04-24T11:08:45;7.50;99.90
5118;DHT22;2578;51.622;7.046;2023-04-24T11:11:17;8.10;99.90
5118;DHT22;2578;51.622;7.046;2023-04-24T11:16:53;8.20;99.90
5118;DHT22;2578;51.622;7.046;2023-04-24T11:19:26;6.00;99.90
5118;DHT22;2578;51.622;7.046;2023-04-24T11:22:01;8.30;99.90
5118;DHT22;2578;51.622;7.046;2023-04-24T11:32:22;9.00;99.90
5118;DHT22;2578;51.622;7.046;2023-04-24T11:34:49;9.50;99.90
5118;DHT22;2578;51.622;7.046;2023-04-24T11:37:16;9.60;99.90
5118;DHT22;2578;51.622;7.046;2023-04-24T11:39:42;11.70;99.90
5118;DHT22;2578;51.622;7.046;2023-04-24T11:42:09;9.80;99.90
5118;DHT22;2578;51.622;7.046;2023-04-24T11:44:35;9.80;99.90
5118;DHT22;2578;51.622;7.046;2023-04-24T11:47:05;9.80;99.90
5118;DHT22;2578;51.622;7.046;2023-04-24T11:49:32;10.00;99.90
5118;DHT22;2578;51.622;7.046;2023-04-24T11:51:59;9.80;99.90
5118;DHT22;2578;51.622;7.046;2023-04-24T11:54:25;9.70;99.90
5118;DHT22;2578;51.622;7.046;2023-04-24T11:56:51;9.70;99.90
5118;DHT22;2578;51.622;7.046;2023-04-24T11:59:17;9.70;99.90
5118;DHT22;2578;51.622;7.046;2023-04-24T12:01:47;9.80;99.90
5118;DHT22;2578;51.622;7.046;2023-04-24T12:04:13;10.30;99.90
5118;DHT22;2578;51.622;7.046;2023-04-24T12:06:39;10.70;99.90
5118;DHT22;2578;51.622;7.046;2023-04-24T12:09:05;11.20;99.90
5118;DHT22;2578;51.622;7.046;2023-04-24T12:11:31;11.30;99.90
5118;DHT22;2578;51.622;7.046;2023-04-24T12:14:09;11.30;99.90
5118;DHT22;2578;51.622;7.046;2023-04-24T12:16:35;10.90;99.90
5118;DHT22;2578;51.622;7.046;2023-04-24T12:19:02;10.60;99.90
5118;DHT22;2578;51.622;7.046;2023-04-24T12:21:27;10.60;99.90
5118;DHT22;2578;51.622;7.046;2023-04-24T12:23:55;10.70;99.90
5118;DHT22;2578;51.622;7.046;2023-04-24T12:26:21;10.90;99.90
5118;DHT22;2578;51.622;7.046;2023-04-24T12:28:49;10.80;99.90
5118;DHT22;2578;51.622;7.046;2023-04-24T12:31:17;10.60;99.90
5118;DHT22;2578;51.622;7.046;2023-04-24T12:33:46;10.50;99.90
5118;DHT22;2578;51.622;7.046;2023-04-24T12:36:12;10.60;99.90
5118;DHT22;2578;51.622;7.046;2023-04-24T12:38:38;8.80;99.90
5118;DHT22;2578;51.622;7.046;2023-04-24T12:41:12;10.30;99.90
5118;DHT22;2578;51.622;7.046;2023-04-24T12:43:38;10.00;99.90
5118;DHT22;2578;51.622;7.046;2023-04-24T12:46:15;10.70;99.90
5118;DHT22;2578;51.622;7.046;2023-04-24T12:48:41;10.50;99.90
5118;DHT22;2578;51.622;7.046;2023-04-24T12:51:07;10.00;99.90
5118;DHT22;2578;51.622;7.046;2023-04-24T12:53:32;10.20;99.90
5118;DHT22;2578;51.622;7.046;2023-04-24T12:55:58;10.10;99.90
5118;DHT22;2578;51.622;7.046;2023-04-24T12:58:24;9.40;99.90
5118;DHT22;2578;51.622;7.046;2023-04-24T13:00:51;9.90;99.90
5118;DHT22;2578;51.622;7.046;2023-04-24T13:03:17;9.70;99.90
5118;DHT22;2578;51.622;7.046;2023-04-24T13:05:43;9.70;99.90
5118;DHT22;2578;51.622;7.046;2023-04-24T13:08:09;9.60;99.90
5118;DHT22;2578;51.622;7.046;2023-04-24T13:10:35;9.60;99.90
5118;DHT22;2578;51.622;7.046;2023-04-24T13:13:01;9.50;99.90
5118;DHT22;2578;51.622;7.046;2023-04-24T13:15:31;9.10;99.90
5118;DHT22;2578;51.622;7.046;2023-04-24T13:17:57;9.10;99.90
5118;DHT22;2578;51.622;7.046;2023-04-24T13:20:24;9.10;99.90
5118;DHT22;2578;51.622;7.046;2023-04-24T13:22:49;9.20;99.90
5118;DHT22;2578;51.622;7.046;2023-04-24T13:25:15;9.10;99.90
5118;DHT22;2578;51.622;7.046;2023-04-24T13:27:53;10.40;99.90
5118;DHT22;2578;51.622;7.046;2023-04-24T13:30:30;9.10;99.90
5118;DHT22;2578;51.622;7.046;2023-04-24T13:33:00;9.20;99.90
5118;DHT22;2578;51.622;7.046;2023-04-24T13:35:30;9.30;99.90
5118;DHT22;2578;51.622;7.046;2023-04-24T13:37:59;9.60;99.90
5118;DHT22;2578;51.622;7.046;2023-04-24T13:40:30;9.60;99.90
5118;DHT22;2578;51.622;7.046;2023-04-24T13:42:57;9.90;99.90
5118;DHT22;2578;51.622;7.046;2023-04-24T13:45:30;9.90;99.90
5118;DHT22;2578;51.622;7.046;2023-04-24T13:47:55;10.20;99.90
5118;DHT22;2578;51.622;7.046;2023-04-24T13:50:23;10.10;99.90
5118;DHT22;2578;51.622;7.046;2023-04-24T13:52:49;10.10;99.90
5118;DHT22;2578;51.622;7.046;2023-04-24T13:55:15;10.20;99.90
5118;DHT22;2578;51.622;7.046;2023-04-24T13:57:40;10.10;99.90
5118;DHT22;2578;51.622;7.046;2023-04-24T14:00:06;10.10;99.90
5118;DHT22;2578;51.622;7.046;2023-04-24T14:02:35;10.00;99.90
5118;DHT22;2578;51.622;7.046;2023-04-24T14:05:01;10.60;99.90
5118;DHT22;2578;51.622;7.046;2023-04-24T14:07:28;10.10;99.90
5118;DHT22;2578;51.622;7.046;2023-04-24T14:09:54;10.10;99.90
5118;DHT22;2578;51.622;7.046;2023-04-24T14:12:20;10.00;99.90
5118;DHT22;2578;51.622;7.046;2023-04-24T14:14:46;10.10;99.90
5118;DHT22;2578;51.622;7.046;2023-04-24T14:17:14;10.10;99.90
5118;DHT22;2578;51.622;7.046;2023-04-24T14:19:39;10.00;99.90
5118;DHT22;2578;51.622;7.046;2023-04-24T14:22:05;10.20;99.90
5118;DHT22;2578;51.622;7.046;2023-04-24T14:24:31;9.30;99.90
5118;DHT22;2578;51.622;7.046;2023-04-24T14:26:57;9.00;99.90
5118;DHT22;2578;51.622;7.046;2023-04-24T14:29:23;8.80;99.90
5118;DHT22;2578;51.622;7.046;2023-04-24T14:31:49;8.70;99.90
5118;DHT22;2578;51.622;7.046;2023-04-24T14:34:15;8.60;99.90
5118;DHT22;2578;51.622;7.046;2023-04-24T14:36:41;8.60;99.90
5118;DHT22;2578;51.622;7.046;2023-04-24T14:39:07;8.50;99.90
5118;DHT22;2578;51.622;7.046;2023-04-24T14:41:33;8.60;99.90
5118;DHT22;2578;51.622;7.046;2023-04-24T14:44:03;8.80;99.90
5118;DHT22;2578;51.622;7.046;2023-04-24T14:46:29;9.00;99.90
5118;DHT22;2578;51.622;7.046;2023-04-24T14:48:56;9.40;99.90
5118;DHT22;2578;51.622;7.046;2023-04-24T14:51:24;9.60;99.90
5118;DHT22;2578;51.622;7.046;2023-04-24T14:53:51;9.80;99.90
5118;DHT22;2578;51.622;7.046;2023-04-24T14:56:17;10.00;99.90
5118;DHT22;2578;51.622;7.046;2023-04-24T14:58:43;10.30;99.90
5118;DHT22;2578;51.622;7.046;2023-04-24T15:01:08;10.30;99.90
5118;DHT22;2578;51.622;7.046;2023-04-24T15:03:34;10.30;99.90
5118;DHT22;2578;51.622;7.046;2023-04-24T15:06:00;10.20;99.90
5118;DHT22;2578;51.622;7.046;2023-04-24T15:08:26;11.30;99.90
5118;DHT22;2578;51.622;7.046;2023-04-24T15:10:52;10.20;99.90
5118;DHT22;2578;51.622;7.046;2023-04-24T15:13:18;10.40;99.90
5118;DHT22;2578;51.622;7.046;2023-04-24T15:15:46;10.60;99.90
5118;DHT22;2578;51.622;7.046;2023-04-24T15:18:12;10.80;99.90
5118;DHT22;2578;51.622;7.046;2023-04-24T15:20:38;11.00;99.90
5118;DHT22;2578;51.622;7.046;2023-04-24T15:23:09;10.70;99.90
5118;DHT22;2578;51.622;7.046;2023-04-24T15:25:36;10.70;99.90
5118;DHT22;2578;51.622;7.046;2023-04-24T15:28:03;10.00;99.90
5118;DHT22;2578;51.622;7.046;2023-04-24T15:30:31;10.00;99.90
5118;DHT22;2578;51.622;7.046;2023-04-24T15:32:57;9.80;99.90
5118;DHT22;2578;51.622;7.046;2023-04-24T15:35:23;9.70;99.90
5118;DHT22;2578;51.622;7.046;2023-04-24T15:37:49;9.30;99.90
5118;DHT22;2578;51.622;7.046;2023-04-24T15:40:15;9.30;99.90
5118;DHT22;2578;51.622;7.046;2023-04-24T15:42:42;9.10;99.90
5118;DHT22;2578;51.622;7.046;2023-04-24T15:45:08;9.00;99.90
5118;DHT22;2578;51.622;7.046;2023-04-24T15:47:34;8.90;99.90
5118;DHT22;2578;51.622;7.046;2023-04-24T15:50:01;8.90;99.90
5118;DHT22;2578;51.622;7.046;2023-04-24T15:52:27;8.90;99.90
5118;DHT22;2578;51.622;7.046;2023-04-24T15:54:53;9.00;1.00
5118;DHT22;2578;51.622;7.046;2023-04-24T15:57:20;9.00;73.20
5118;DHT22;2578;51.622;7.046;2023-04-24T15:59:46;8.90;40.60
5118;DHT22;2578;51.622;7.046;2023-04-24T16:02:13;9.10;99.90
5118;DHT22;2578;51.622;7.046;2023-04-24T16:04:47;9.60;44.10
5118;DHT22;2578;51.622;7.046;2023-04-24T16:07:13;10.20;1.00
5118;DHT22;2578;51.622;7.046;2023-04-24T16:09:40;10.40;37.00
5118;DHT22;2578;51.622;7.046;2023-04-24T16:12:06;10.10;99.90
5118;DHT22;2578;51.622;7.046;2023-04-24T16:14:32;10.00;99.90
5118;DHT22;2578;51.622;7.046;2023-04-24T16:16:58;10.00;99.90
5118;DHT22;2578;51.622;7.046;2023-04-24T16:19:23;10.00;1.00
5118;DHT22;2578;51.622;7.046;2023-04-24T16:21:49;10.20;2.00
5118;DHT22;2578;51.622;7.046;2023-04-24T16:24:16;10.40;99.90
5118;DHT22;2578;51.622;7.046;2023-04-24T16:26:41;10.20;22.50
5118;DHT22;2578;51.622;7.046;2023-04-24T16:29:07;9.70;1.00
5118;DHT22;2578;51.622;7.046;2023-04-24T16:31:33;9.60;1.00
5118;DHT22;2578;51.622;7.046;2023-04-24T16:33:59;9.60;99.90
5118;DHT22;2578;51.622;7.046;2023-04-24T16:36:24;10.10;99.90